sensor_id;sensor_type;location;lat;lon;timestamp;pressure;altitude;pressure_sealevel;temperature;humidity
25238;BME280;13185;50.872;5.306;2023-04-04T00:01:15;102519.34;;;3.13;67.48
25238;BME280;13185;50.872;5.306;2023-04-04T00:03:41;102522.03;;;3.07;67.84
25238;BME280;13185;50.872;5.306;2023-04-04T00:06:07;102524.72;;;3.05;67.90
25238;BME280;13185;50.872;5.306;2023-04-04T00:08:32;102512.38;;;3.00;67.84
25238;BME280;13185;50.872;5.306;2023-04-04T00:11:01;102504.47;;;2.95;68.02
25238;BME280;13185;50.872;5.306;2023-04-04T00:13:27;102511.53;;;2.92;68.22
25238;BME280;13185;50.872;5.306;2023-04-04T00:15:53;102511.56;;;2.88;68.17
25238;BME280;13185;50.872;5.306;2023-04-04T00:18:19;102513.38;;;2.85;68.32
25238;BME280;13185;50.872;5.306;2023-04-04T00:20:44;102519.56;;;2.81;68.36
25238;BME280;13185;50.872;5.306;2023-04-04T00:23:10;102516.91;;;2.79;68.62
25238;BME280;13185;50.872;5.306;2023-04-04T00:25:36;102520.44;;;2.80;68.91
25238;BME280;13185;50.872;5.306;2023-04-04T00:28:02;102515.16;;;2.78;69.09
25238;BME280;13185;50.872;5.306;2023-04-04T00:30:28;102519.59;;;2.76;68.93
25238;BME280;13185;50.872;5.306;2023-04-04T00:32:54;102523.16;;;2.72;68.93
25238;BME280;13185;50.872;5.306;2023-04-04T00:35:20;102517.84;;;2.69;69.05
25238;BME280;13185;50.872;5.306;2023-04-04T00:37:46;102510.84;;;2.65;69.08
25238;BME280;13185;50.872;5.306;2023-04-04T00:40:12;102519.69;;;2.61;69.15
25238;BME280;13185;50.872;5.306;2023-04-04T00:42:38;102513.53;;;2.60;69.49
25238;BME280;13185;50.872;5.306;2023-04-04T00:45:06;102515.28;;;2.57;69.76
25238;BME280;13185;50.872;5.306;2023-04-04T00:47:32;102517.06;;;2.56;69.80
25238;BME280;13185;50.872;5.306;2023-04-04T00:49:58;102517.06;;;2.55;69.80
25238;BME280;13185;50.872;5.306;2023-04-04T00:52:24;102510.91;;;2.53;69.77
25238;BME280;13185;50.872;5.306;2023-04-04T00:54:49;102519.75;;;2.52;69.81
25238;BME280;13185;50.872;5.306;2023-04-04T00:57:15;102517.09;;;2.47;70.04
25238;BME280;13185;50.872;5.306;2023-04-04T00:59:42;102519.75;;;2.46;70.18
25238;BME280;13185;50.872;5.306;2023-04-04T01:02:07;102526.81;;;2.47;70.37
25238;BME280;13185;50.872;5.306;2023-04-04T01:04:34;102525.06;;;2.44;70.43
25238;BME280;13185;50.872;5.306;2023-04-04T01:07:01;102528.59;;;2.43;70.45
25238;BME280;13185;50.872;5.306;2023-04-04T01:09:27;102533.03;;;2.41;70.72
25238;BME280;13185;50.872;5.306;2023-04-04T01:11:55;102532.16;;;2.38;70.99
25238;BME280;13185;50.872;5.306;2023-04-04T01:14:22;102528.63;;;2.36;70.99
25238;BME280;13185;50.872;5.306;2023-04-04T01:16:49;102534.81;;;2.35;71.07
25238;BME280;13185;50.872;5.306;2023-04-04T01:19:25;102536.59;;;2.31;71.02
25238;BME280;13185;50.872;5.306;2023-04-04T01:21:55;102529.53;;;2.27;70.89
25238;BME280;13185;50.872;5.306;2023-04-04T01:24:22;102532.22;;;2.24;70.91
25238;BME280;13185;50.872;5.306;2023-04-04T01:26:55;102526.94;;;2.22;70.92
25238;BME280;13185;50.872;5.306;2023-04-04T01:29:20;102529.59;;;2.21;71.06
25238;BME280;13185;50.872;5.306;2023-04-04T01:31:52;102531.34;;;2.17;71.03
25238;BME280;13185;50.872;5.306;2023-04-04T01:34:41;102534.88;;;2.15;71.21
25238;BME280;13185;50.872;5.306;2023-04-04T01:37:26;102534.91;;;2.13;71.08
25238;BME280;13185;50.872;5.306;2023-04-04T01:40:00;102538.44;;;2.12;71.05
25238;BME280;13185;50.872;5.306;2023-04-04T01:42:31;102541.09;;;2.09;71.02
25238;BME280;13185;50.872;5.306;2023-04-04T01:44:57;102532.25;;;2.07;71.34
25238;BME280;13185;50.872;5.306;2023-04-04T01:47:27;102536.69;;;2.05;71.30
25238;BME280;13185;50.872;5.306;2023-04-04T01:49:55;102536.69;;;2.02;71.38
25238;BME280;13185;50.872;5.306;2023-04-04T01:52:21;102528.78;;;1.99;71.69
25238;BME280;13185;50.872;5.306;2023-04-04T01:54:47;102527.00;;;1.95;71.84
25238;BME280;13185;50.872;5.306;2023-04-04T01:57:12;102527.03;;;1.92;71.67
25238;BME280;13185;50.872;5.306;2023-04-04T01:59:39;102527.94;;;1.88;71.93
25238;BME280;13185;50.872;5.306;2023-04-04T02:02:04;102518.19;;;1.85;72.18
25238;BME280;13185;50.872;5.306;2023-04-04T02:04:30;102518.22;;;1.84;72.06
25238;BME280;13185;50.872;5.306;2023-04-04T02:06:55;102523.50;;;1.82;72.25
25238;BME280;13185;50.872;5.306;2023-04-04T02:09:21;102517.34;;;1.80;72.44
25238;BME280;13185;50.872;5.306;2023-04-04T02:11:47;102522.66;;;1.79;72.20
25238;BME280;13185;50.872;5.306;2023-04-04T02:14:13;102519.13;;;1.78;72.63
25238;BME280;13185;50.872;5.306;2023-04-04T02:16:39;102516.47;;;1.75;72.69
25238;BME280;13185;50.872;5.306;2023-04-04T02:19:04;102525.28;;;1.71;72.73
25238;BME280;13185;50.872;5.306;2023-04-04T02:21:35;102524.44;;;1.69;72.75
25238;BME280;13185;50.872;5.306;2023-04-04T02:24:00;102521.78;;;1.64;72.71
25238;BME280;13185;50.872;5.306;2023-04-04T02:26:26;102524.44;;;1.61;72.65
25238;BME280;13185;50.872;5.306;2023-04-04T02:28:51;102532.38;;;1.58;72.99
25238;BME280;13185;50.872;5.306;2023-04-04T02:31:17;102533.25;;;1.56;73.13
25238;BME280;13185;50.872;5.306;2023-04-04T02:33:42;102532.38;;;1.52;73.07
25238;BME280;13185;50.872;5.306;2023-04-04T02:36:09;102527.09;;;1.49;73.16
25238;BME280;13185;50.872;5.306;2023-04-04T02:38:34;102534.13;;;1.45;73.52
25238;BME280;13185;50.872;5.306;2023-04-04T02:41:03;102526.19;;;1.42;73.55
25238;BME280;13185;50.872;5.306;2023-04-04T02:43:29;102522.69;;;1.39;73.74
25238;BME280;13185;50.872;5.306;2023-04-04T02:45:56;102524.44;;;1.32;73.74
25238;BME280;13185;50.872;5.306;2023-04-04T02:48:23;102522.69;;;1.31;73.98
25238;BME280;13185;50.872;5.306;2023-04-04T02:50:56;102529.75;;;1.28;74.22
25238;BME280;13185;50.872;5.306;2023-04-04T02:53:21;102523.56;;;1.27;74.38
25238;BME280;13185;50.872;5.306;2023-04-04T02:55:49;102519.16;;;1.25;74.34
25238;BME280;13185;50.872;5.306;2023-04-04T02:58:15;102519.16;;;1.22;74.47
25238;BME280;13185;50.872;5.306;2023-04-04T03:00:40;102515.63;;;1.20;74.46
25238;BME280;13185;50.872;5.306;2023-04-04T03:03:06;102517.41;;;1.16;74.49
25238;BME280;13185;50.872;5.306;2023-04-04T03:05:37;102512.09;;;1.10;74.76
25238;BME280;13185;50.872;5.306;2023-04-04T03:08:03;102513.88;;;1.06;74.89
25238;BME280;13185;50.872;5.306;2023-04-04T03:10:29;102516.50;;;1.02;75.18
25238;BME280;13185;50.872;5.306;2023-04-04T03:12:54;102512.97;;;1.00;75.09
25238;BME280;13185;50.872;5.306;2023-04-04T03:15:22;102516.50;;;0.99;75.15
25238;BME280;13185;50.872;5.306;2023-04-04T03:17:48;102506.81;;;0.95;75.29
25238;BME280;13185;50.872;5.306;2023-04-04T03:20:13;102508.59;;;0.94;75.38
25238;BME280;13185;50.872;5.306;2023-04-04T03:22:39;102502.41;;;0.91;75.42
25238;BME280;13185;50.872;5.306;2023-04-04T03:25:06;102511.22;;;0.86;75.65
25238;BME280;13185;50.872;5.306;2023-04-04T03:27:32;102507.66;;;0.81;75.78
25238;BME280;13185;50.872;5.306;2023-04-04T03:29:59;102504.16;;;0.78;75.96
25238;BME280;13185;50.872;5.306;2023-04-04T03:32:27;102509.44;;;0.76;76.09
25238;BME280;13185;50.872;5.306;2023-04-04T03:34:53;102512.06;;;0.75;76.18
25238;BME280;13185;50.872;5.306;2023-04-04T03:37:18;102511.19;;;0.74;76.33
25238;BME280;13185;50.872;5.306;2023-04-04T03:39:44;102509.44;;;0.73;76.37
25238;BME280;13185;50.872;5.306;2023-04-04T03:42:10;102513.81;;;0.71;76.49
25238;BME280;13185;50.872;5.306;2023-04-04T03:44:41;102512.94;;;0.69;76.68
25238;BME280;13185;50.872;5.306;2023-04-04T03:47:13;102506.75;;;0.67;76.76
25238;BME280;13185;50.872;5.306;2023-04-04T03:49:38;102516.44;;;0.64;76.99
25238;BME280;13185;50.872;5.306;2023-04-04T03:52:04;102525.25;;;0.63;77.13
25238;BME280;13185;50.872;5.306;2023-04-04T03:54:30;102525.22;;;0.61;77.41
25238;BME280;13185;50.872;5.306;2023-04-04T03:56:56;102526.09;;;0.60;77.54
25238;BME280;13185;50.872;5.306;2023-04-04T03:59:22;102522.59;;;0.58;77.68
25238;BME280;13185;50.872;5.306;2023-04-04T04:01:48;102521.69;;;0.56;77.87
25238;BME280;13185;50.872;5.306;2023-04-04T04:04:13;102526.09;;;0.55;78.08
25238;BME280;13185;50.872;5.306;2023-04-04T04:06:39;102519.06;;;0.53;78.39
25238;BME280;13185;50.872;5.306;2023-04-04T04:09:04;102512.88;;;0.49;78.47
25238;BME280;13185;50.872;5.306;2023-04-04T04:11:30;102519.03;;;0.47;78.50
25238;BME280;13185;50.872;5.306;2023-04-04T04:13:55;102515.50;;;0.43;78.83
25238;BME280;13185;50.872;5.306;2023-04-04T04:16:21;102515.47;;;0.40;78.90
25238;BME280;13185;50.872;5.306;2023-04-04T04:18:48;102520.75;;;0.37;79.08
25238;BME280;13185;50.872;5.306;2023-04-04T04:21:21;102527.78;;;0.34;79.00
25238;BME280;13185;50.872;5.306;2023-04-04T04:23:46;102531.31;;;0.33;79.27
25238;BME280;13185;50.872;5.306;2023-04-04T04:26:12;102518.06;;;0.31;79.08
25238;BME280;13185;50.872;5.306;2023-04-04T04:28:38;102513.69;;;0.28;79.16
25238;BME280;13185;50.872;5.306;2023-04-04T04:31:09;102517.19;;;0.27;79.41
25238;BME280;13185;50.872;5.306;2023-04-04T04:33:41;102528.63;;;0.23;79.37
25238;BME280;13185;50.872;5.306;2023-04-04T04:36:07;102524.22;;;0.22;79.67
25238;BME280;13185;50.872;5.306;2023-04-04T04:38:44;102513.66;;;0.22;79.61
25238;BME280;13185;50.872;5.306;2023-04-04T04:41:10;102510.16;;;0.23;79.72
25238;BME280;13185;50.872;5.306;2023-04-04T04:43:42;102520.72;;;0.22;79.68
25238;BME280;13185;50.872;5.306;2023-04-04T04:46:07;102512.75;;;0.20;80.06
25238;BME280;13185;50.872;5.306;2023-04-04T04:48:33;102511.00;;;0.16;80.08
25238;BME280;13185;50.872;5.306;2023-04-04T04:50:59;102512.75;;;0.16;80.37
25238;BME280;13185;50.872;5.306;2023-04-04T04:53:36;102514.50;;;0.15;80.36
25238;BME280;13185;50.872;5.306;2023-04-04T04:56:03;102506.59;;;0.12;80.60
25238;BME280;13185;50.872;5.306;2023-04-04T04:58:31;102501.31;;;0.11;80.71
25238;BME280;13185;50.872;5.306;2023-04-04T05:00:59;102510.09;;;0.11;80.55
25238;BME280;13185;50.872;5.306;2023-04-04T05:03:33;102511.88;;;0.11;80.71
25238;BME280;13185;50.872;5.306;2023-04-04T05:06:01;102513.59;;;0.07;80.73
25238;BME280;13185;50.872;5.306;2023-04-04T05:08:26;102519.72;;;0.06;80.79
25238;BME280;13185;50.872;5.306;2023-04-04T05:11:15;102517.97;;;0.05;80.92
25238;BME280;13185;50.872;5.306;2023-04-04T05:13:40;102521.50;;;0.04;80.95
25238;BME280;13185;50.872;5.306;2023-04-04T05:16:06;102516.22;;;0.04;81.00
25238;BME280;13185;50.872;5.306;2023-04-04T05:18:34;102519.72;;;0.00;80.84
25238;BME280;13185;50.872;5.306;2023-04-04T05:21:00;102522.31;;;-0.02;80.88
25238;BME280;13185;50.872;5.306;2023-04-04T05:23:27;102510.88;;;-0.05;81.07
25238;BME280;13185;50.872;5.306;2023-04-04T05:25:53;102522.31;;;-0.05;81.05
25238;BME280;13185;50.872;5.306;2023-04-04T05:28:20;102524.97;;;-0.05;81.23
25238;BME280;13185;50.872;5.306;2023-04-04T05:30:49;102527.59;;;-0.06;81.32
25238;BME280;13185;50.872;5.306;2023-04-04T05:33:18;102532.88;;;-0.08;81.43
25238;BME280;13185;50.872;5.306;2023-04-04T05:35:54;102532.88;;;-0.06;81.75
25238;BME280;13185;50.872;5.306;2023-04-04T05:38:20;102535.50;;;-0.05;82.08
25238;BME280;13185;50.872;5.306;2023-04-04T05:40:54;102542.53;;;-0.02;82.10
25238;BME280;13185;50.872;5.306;2023-04-04T05:43:21;102538.19;;;0.00;82.86
25238;BME280;13185;50.872;5.306;2023-04-04T05:45:59;102533.78;;;0.02;82.80
25238;BME280;13185;50.872;5.306;2023-04-04T05:48:27;102546.13;;;0.05;83.27
25238;BME280;13185;50.872;5.306;2023-04-04T05:50:53;102549.63;;;0.08;83.23
25238;BME280;13185;50.872;5.306;2023-04-04T05:53:27;102551.44;;;0.17;83.19
25238;BME280;13185;50.872;5.306;2023-04-04T05:55:52;102550.63;;;0.22;83.28
25238;BME280;13185;50.872;5.306;2023-04-04T05:58:19;102557.66;;;0.29;83.17
25238;BME280;13185;50.872;5.306;2023-04-04T06:00:50;102554.19;;;0.38;83.11
25238;BME280;13185;50.872;5.306;2023-04-04T06:03:16;102558.63;;;0.45;82.96
25238;BME280;13185;50.872;5.306;2023-04-04T06:05:43;102558.66;;;0.53;82.91
25238;BME280;13185;50.872;5.306;2023-04-04T06:08:09;102564.84;;;0.63;82.70
25238;BME280;13185;50.872;5.306;2023-04-04T06:10:35;102565.75;;;0.69;82.73
25238;BME280;13185;50.872;5.306;2023-04-04T06:13:00;102557.84;;;0.78;82.68
25238;BME280;13185;50.872;5.306;2023-04-04T06:15:27;102557.88;;;0.89;82.30
25238;BME280;13185;50.872;5.306;2023-04-04T06:17:53;102567.59;;;0.99;81.74
25238;BME280;13185;50.872;5.306;2023-04-04T06:20:18;102570.25;;;1.07;81.22
25238;BME280;13185;50.872;5.306;2023-04-04T06:22:47;102568.50;;;1.15;80.98
25238;BME280;13185;50.872;5.306;2023-04-04T06:25:12;102570.25;;;1.24;80.50
25238;BME280;13185;50.872;5.306;2023-04-04T06:27:39;102570.25;;;1.31;80.28
25238;BME280;13185;50.872;5.306;2023-04-04T06:30:06;102578.19;;;1.40;79.92
25238;BME280;13185;50.872;5.306;2023-04-04T06:32:32;102573.78;;;1.53;80.11
25238;BME280;13185;50.872;5.306;2023-04-04T06:35:00;102578.19;;;1.66;79.85
25238;BME280;13185;50.872;5.306;2023-04-04T06:37:37;102581.72;;;1.82;79.55
25238;BME280;13185;50.872;5.306;2023-04-04T06:40:10;102583.44;;;1.95;79.42
25238;BME280;13185;50.872;5.306;2023-04-04T06:42:36;102579.91;;;2.06;79.25
25238;BME280;13185;50.872;5.306;2023-04-04T06:45:03;102572.81;;;2.18;78.89
25238;BME280;13185;50.872;5.306;2023-04-04T06:47:29;102579.84;;;2.28;78.64
25238;BME280;13185;50.872;5.306;2023-04-04T06:49:54;102584.22;;;2.37;78.24
25238;BME280;13185;50.872;5.306;2023-04-04T06:52:20;102583.31;;;2.46;77.67
25238;BME280;13185;50.872;5.306;2023-04-04T06:54:45;102584.13;;;2.58;78.33
25238;BME280;13185;50.872;5.306;2023-04-04T06:57:12;102585.91;;;2.61;76.52
25238;BME280;13185;50.872;5.306;2023-04-04T06:59:39;102585.84;;;2.69;76.52
25238;BME280;13185;50.872;5.306;2023-04-04T07:02:05;102588.50;;;2.73;76.12
25238;BME280;13185;50.872;5.306;2023-04-04T07:04:31;102584.03;;;2.80;76.36
25238;BME280;13185;50.872;5.306;2023-04-04T07:06:59;102577.88;;;2.82;76.36
25238;BME280;13185;50.872;5.306;2023-04-04T07:09:25;102579.59;;;2.85;76.12
25238;BME280;13185;50.872;5.306;2023-04-04T07:11:50;102566.38;;;2.82;74.80
25238;BME280;13185;50.872;5.306;2023-04-04T07:14:16;102573.47;;;2.77;74.84
25238;BME280;13185;50.872;5.306;2023-04-04T07:16:41;102569.94;;;2.76;75.22
25238;BME280;13185;50.872;5.306;2023-04-04T07:19:07;102580.53;;;2.75;74.32
25238;BME280;13185;50.872;5.306;2023-04-04T07:21:32;102570.84;;;2.69;74.47
25238;BME280;13185;50.872;5.306;2023-04-04T07:23:59;102570.84;;;2.69;74.43
25238;BME280;13185;50.872;5.306;2023-04-04T07:26:26;102577.88;;;2.76;75.22
25238;BME280;13185;50.872;5.306;2023-04-04T07:28:52;102569.91;;;2.84;75.29
25238;BME280;13185;50.872;5.306;2023-04-04T07:31:17;102575.13;;;2.92;74.81
25238;BME280;13185;50.872;5.306;2023-04-04T07:33:43;102581.31;;;2.95;74.13
25238;BME280;13185;50.872;5.306;2023-04-04T07:36:08;102583.91;;;3.04;74.65
25238;BME280;13185;50.872;5.306;2023-04-04T07:38:34;102585.63;;;3.11;74.67
25238;BME280;13185;50.872;5.306;2023-04-04T07:41:00;102596.16;;;3.22;74.98
25238;BME280;13185;50.872;5.306;2023-04-04T07:43:25;102586.34;;;3.33;75.10
25238;BME280;13185;50.872;5.306;2023-04-04T07:45:53;102583.66;;;3.44;73.66
25238;BME280;13185;50.872;5.306;2023-04-04T07:48:19;102579.13;;;3.52;72.25
25238;BME280;13185;50.872;5.306;2023-04-04T07:50:45;102591.44;;;3.62;71.24
25238;BME280;13185;50.872;5.306;2023-04-04T07:53:10;102579.91;;;3.66;70.21
25238;BME280;13185;50.872;5.306;2023-04-04T07:55:36;102571.84;;;3.79;70.55
25238;BME280;13185;50.872;5.306;2023-04-04T07:58:01;102577.97;;;3.87;70.45
25238;BME280;13185;50.872;5.306;2023-04-04T08:00:27;102554.06;;;3.88;70.10
25238;BME280;13185;50.872;5.306;2023-04-04T08:02:56;102561.16;;;3.86;67.84
25238;BME280;13185;50.872;5.306;2023-04-04T08:05:25;102561.16;;;3.86;67.32
25238;BME280;13185;50.872;5.306;2023-04-04T08:07:51;102565.56;;;3.84;64.97
25238;BME280;13185;50.872;5.306;2023-04-04T08:10:17;102553.06;;;3.95;66.73
25238;BME280;13185;50.872;5.306;2023-04-04T08:12:43;102566.22;;;4.06;65.67
25238;BME280;13185;50.872;5.306;2023-04-04T08:15:10;102559.19;;;4.03;63.76
25238;BME280;13185;50.872;5.306;2023-04-04T08:17:36;102561.91;;;3.99;63.56
25238;BME280;13185;50.872;5.306;2023-04-04T08:20:03;102559.19;;;4.03;62.36
25238;BME280;13185;50.872;5.306;2023-04-04T08:22:29;102557.41;;;4.04;62.51
25238;BME280;13185;50.872;5.306;2023-04-04T08:24:54;102564.44;;;4.10;62.46
25238;BME280;13185;50.872;5.306;2023-04-04T08:27:21;102561.69;;;4.19;62.21
25238;BME280;13185;50.872;5.306;2023-04-04T08:29:46;102568.78;;;4.17;61.54
25238;BME280;13185;50.872;5.306;2023-04-04T08:32:13;102562.56;;;4.19;61.46
25238;BME280;13185;50.872;5.306;2023-04-04T08:34:39;102552.78;;;4.23;61.96
25238;BME280;13185;50.872;5.306;2023-04-04T08:37:06;102555.34;;;4.30;61.91
25238;BME280;13185;50.872;5.306;2023-04-04T08:39:31;102558.81;;;4.37;60.53
25238;BME280;13185;50.872;5.306;2023-04-04T08:42:02;102549.88;;;4.44;61.27
25238;BME280;13185;50.872;5.306;2023-04-04T08:44:30;102557.78;;;4.50;60.75
25238;BME280;13185;50.872;5.306;2023-04-04T08:47:04;102550.59;;;4.57;60.96
25238;BME280;13185;50.872;5.306;2023-04-04T08:49:33;102556.72;;;4.62;60.15
25238;BME280;13185;50.872;5.306;2023-04-04T08:52:01;102553.94;;;4.73;60.86
25238;BME280;13185;50.872;5.306;2023-04-04T08:54:27;102556.47;;;4.82;60.14
25238;BME280;13185;50.872;5.306;2023-04-04T08:56:55;102556.44;;;4.83;61.12
25238;BME280;13185;50.872;5.306;2023-04-04T08:59:21;102562.59;;;4.87;59.57
25238;BME280;13185;50.872;5.306;2023-04-04T09:01:47;102562.50;;;4.93;59.49
25238;BME280;13185;50.872;5.306;2023-04-04T09:04:12;102564.25;;;4.96;59.60
25238;BME280;13185;50.872;5.306;2023-04-04T09:06:39;102565.03;;;5.02;59.14
25238;BME280;13185;50.872;5.306;2023-04-04T09:09:04;102558.66;;;5.14;59.25
25238;BME280;13185;50.872;5.306;2023-04-04T09:11:30;102561.19;;;5.23;57.05
25238;BME280;13185;50.872;5.306;2023-04-04T09:13:57;102553.16;;;5.25;56.90
25238;BME280;13185;50.872;5.306;2023-04-04T09:16:25;102546.91;;;5.27;58.41
25238;BME280;13185;50.872;5.306;2023-04-04T09:18:51;102550.34;;;5.35;58.61
25238;BME280;13185;50.872;5.306;2023-04-04T09:21:18;102545.97;;;5.33;57.72
25238;BME280;13185;50.872;5.306;2023-04-04T09:23:44;102543.09;;;5.45;58.41
25238;BME280;13185;50.872;5.306;2023-04-04T09:26:10;102549.09;;;5.56;57.22
25238;BME280;13185;50.872;5.306;2023-04-04T09:28:37;102555.13;;;5.67;56.05
25238;BME280;13185;50.872;5.306;2023-04-04T09:31:06;102552.38;;;5.73;55.04
25238;BME280;13185;50.872;5.306;2023-04-04T09:33:33;102545.31;;;5.69;54.02
25238;BME280;13185;50.872;5.306;2023-04-04T09:36:02;102539.16;;;5.67;54.65
25238;BME280;13185;50.872;5.306;2023-04-04T09:38:29;102535.50;;;5.71;54.47
25238;BME280;13185;50.872;5.306;2023-04-04T09:40:55;102538.84;;;5.83;55.11
25238;BME280;13185;50.872;5.306;2023-04-04T09:43:24;102542.19;;;5.97;54.41
25238;BME280;13185;50.872;5.306;2023-04-04T09:45:50;102535.91;;;5.99;54.46
25238;BME280;13185;50.872;5.306;2023-04-04T09:48:25;102537.59;;;6.03;54.55
25238;BME280;13185;50.872;5.306;2023-04-04T09:50:51;102532.22;;;6.08;53.30
25238;BME280;13185;50.872;5.306;2023-04-04T09:53:17;102531.16;;;6.17;54.72
25238;BME280;13185;50.872;5.306;2023-04-04T09:55:52;102536.19;;;6.30;54.13
25238;BME280;13185;50.872;5.306;2023-04-04T09:58:23;102532.44;;;6.41;52.38
25238;BME280;13185;50.872;5.306;2023-04-04T10:00:56;102531.44;;;6.45;51.35
25238;BME280;13185;50.872;5.306;2023-04-04T10:03:23;102522.53;;;6.47;50.68
25238;BME280;13185;50.872;5.306;2023-04-04T10:06:14;102525.88;;;6.57;50.56
25238;BME280;13185;50.872;5.306;2023-04-04T10:08:41;102525.84;;;6.58;50.20
25238;BME280;13185;50.872;5.306;2023-04-04T10:11:08;102516.06;;;6.59;51.03
25238;BME280;13185;50.872;5.306;2023-04-04T10:13:35;102518.66;;;6.62;49.85
25238;BME280;13185;50.872;5.306;2023-04-04T10:16:02;102532.97;;;6.58;49.69
25238;BME280;13185;50.872;5.306;2023-04-04T10:18:32;102520.50;;;6.58;49.22
25238;BME280;13185;50.872;5.306;2023-04-04T10:21:01;102513.38;;;6.59;49.90
25238;BME280;13185;50.872;5.306;2023-04-04T10:23:27;102515.09;;;6.61;49.88
25238;BME280;13185;50.872;5.306;2023-04-04T10:25:57;102517.72;;;6.63;49.85
25238;BME280;13185;50.872;5.306;2023-04-04T10:28:24;102514.00;;;6.72;50.68
25238;BME280;13185;50.872;5.306;2023-04-04T10:31:06;102512.94;;;6.77;48.96
25238;BME280;13185;50.872;5.306;2023-04-04T10:36:07;102525.50;;;6.74;49.66
25238;BME280;13185;50.872;5.306;2023-04-04T10:38:41;102517.44;;;6.75;50.55
25238;BME280;13185;50.872;5.306;2023-04-04T10:41:09;102520.03;;;6.80;50.10
25238;BME280;13185;50.872;5.306;2023-04-04T10:43:39;102519.00;;;6.85;50.11
25238;BME280;13185;50.872;5.306;2023-04-04T10:46:11;102512.69;;;6.89;49.66
25238;BME280;13185;50.872;5.306;2023-04-04T10:48:38;102511.63;;;6.97;48.81
25238;BME280;13185;50.872;5.306;2023-04-04T10:51:05;102508.78;;;7.04;50.08
25238;BME280;13185;50.872;5.306;2023-04-04T10:53:32;102505.91;;;7.13;49.11
25238;BME280;13185;50.872;5.306;2023-04-04T10:55:59;102496.09;;;7.14;48.56
25238;BME280;13185;50.872;5.306;2023-04-04T10:58:27;102490.72;;;7.15;49.22
25238;BME280;13185;50.872;5.306;2023-04-04T11:00:54;102487.66;;;7.32;50.64
25238;BME280;13185;50.872;5.306;2023-04-04T11:03:20;102490.00;;;7.44;48.78
25238;BME280;13185;50.872;5.306;2023-04-04T11:05:46;102482.94;;;7.42;48.32
25238;BME280;13185;50.872;5.306;2023-04-04T11:08:17;102474.03;;;7.43;47.21
25238;BME280;13185;50.872;5.306;2023-04-04T11:10:53;102473.00;;;7.47;48.66
25238;BME280;13185;50.872;5.306;2023-04-04T11:13:32;102477.25;;;7.56;48.67
25238;BME280;13185;50.872;5.306;2023-04-04T11:16:03;102473.41;;;7.66;47.79
25238;BME280;13185;50.872;5.306;2023-04-04T11:21:30;102466.13;;;7.72;48.06
25238;BME280;13185;50.872;5.306;2023-04-04T11:29:05;102464.59;;;7.95;47.53
25238;BME280;13185;50.872;5.306;2023-04-04T11:31:44;102457.19;;;8.04;47.37
25238;BME280;13185;50.872;5.306;2023-04-04T11:34:14;102461.66;;;8.04;47.02
25238;BME280;13185;50.872;5.306;2023-04-04T11:44:23;102437.91;;;8.24;46.33
25238;BME280;13185;50.872;5.306;2023-04-04T11:47:00;102443.16;;;8.27;45.55
25238;BME280;13185;50.872;5.306;2023-04-04T11:49:27;102439.56;;;8.28;44.74
25238;BME280;13185;50.872;5.306;2023-04-04T11:51:56;102440.31;;;8.32;45.07
25238;BME280;13185;50.872;5.306;2023-04-04T11:54:22;102439.16;;;8.42;45.41
25238;BME280;13185;50.872;5.306;2023-04-04T11:56:48;102429.25;;;8.46;45.56
25238;BME280;13185;50.872;5.306;2023-04-04T11:59:18;102421.13;;;8.49;45.51
25238;BME280;13185;50.872;5.306;2023-04-04T12:01:44;102425.28;;;8.59;46.27
25238;BME280;13185;50.872;5.306;2023-04-04T12:04:10;102408.13;;;8.64;45.82
25238;BME280;13185;50.872;5.306;2023-04-04T12:06:38;102423.94;;;8.72;45.05
25238;BME280;13185;50.872;5.306;2023-04-04T12:09:05;102414.00;;;8.77;44.07
25238;BME280;13185;50.872;5.306;2023-04-04T12:11:33;102420.16;;;8.79;43.66
25238;BME280;13185;50.872;5.306;2023-04-04T12:13:59;102418.25;;;8.83;44.47
25238;BME280;13185;50.872;5.306;2023-04-04T12:16:26;102417.19;;;8.88;43.71
25238;BME280;13185;50.872;5.306;2023-04-04T12:18:52;102415.38;;;8.89;43.52
25238;BME280;13185;50.872;5.306;2023-04-04T12:21:18;102399.09;;;8.95;43.23
25238;BME280;13185;50.872;5.306;2023-04-04T12:23:45;102402.41;;;9.03;43.74
25238;BME280;13185;50.872;5.306;2023-04-04T12:26:13;102389.47;;;9.16;44.39
25238;BME280;13185;50.872;5.306;2023-04-04T12:28:39;102398.25;;;9.21;44.83
25238;BME280;13185;50.872;5.306;2023-04-04T12:31:06;102389.81;;;9.32;45.12
25238;BME280;13185;50.872;5.306;2023-04-04T12:33:32;102391.38;;;9.39;42.74
25238;BME280;13185;50.872;5.306;2023-04-04T12:35:59;102390.16;;;9.47;43.89
25238;BME280;13185;50.872;5.306;2023-04-04T12:38:27;102388.25;;;9.51;43.54
25238;BME280;13185;50.872;5.306;2023-04-04T12:40:55;102384.09;;;9.42;42.30
25238;BME280;13185;50.872;5.306;2023-04-04T12:43:20;102382.09;;;9.49;43.82
25238;BME280;13185;50.872;5.306;2023-04-04T12:45:48;102382.56;;;9.60;42.46
25238;BME280;13185;50.872;5.306;2023-04-04T12:48:14;102377.91;;;9.65;41.97
25238;BME280;13185;50.872;5.306;2023-04-04T12:50:56;102374.94;;;9.73;43.27
25238;BME280;13185;50.872;5.306;2023-04-04T12:53:23;102368.44;;;9.80;43.32
25238;BME280;13185;50.872;5.306;2023-04-04T12:55:50;102373.66;;;9.83;41.90
25238;BME280;13185;50.872;5.306;2023-04-04T12:58:21;102373.47;;;9.88;42.76
25238;BME280;13185;50.872;5.306;2023-04-04T13:00:53;102372.38;;;9.93;42.37
25238;BME280;13185;50.872;5.306;2023-04-04T13:03:20;102369.28;;;10.04;41.72
25238;BME280;13185;50.872;5.306;2023-04-04T13:05:47;102355.41;;;10.16;42.03
25238;BME280;13185;50.872;5.306;2023-04-04T13:08:13;102354.22;;;10.25;42.72
25238;BME280;13185;50.872;5.306;2023-04-04T13:13:33;102352.84;;;10.36;42.97
25238;BME280;13185;50.872;5.306;2023-04-04T13:15:59;102347.03;;;10.47;43.11
25238;BME280;13185;50.872;5.306;2023-04-04T13:18:31;102351.97;;;10.58;42.19
25238;BME280;13185;50.872;5.306;2023-04-04T13:20:57;102346.16;;;10.68;41.07
25238;BME280;13185;50.872;5.306;2023-04-04T13:23:23;102338.81;;;10.74;40.98